F/V Argentario — FGPE — position and weather

sailwx.info

Track history (hours):
 
Tides and Currents Weather Stations Pressure Air Temp Water Temp Dewpoint Dewpoint Depression Visibility Wind Speed Wind Dir Waves Ship Positions

F/V Argentario

Last reported at 2017-Sep-18 14:42 UTC. Time now 2017-Sep-21 06:49 UTC.
Position N 46°38' W 002°17'.

Length 22 m; draft 3.4 m.

Type: Fishing. MMSI: 228975000.

Date/timePositionNaut miles runAvg speedWind from/ knotsBaromVisibWave heightAir tempDewpointWater temp
2017-Sep-18 14:42N 46°38' W 002°17'2 9.1
2017-Sep-18 14:30N 46°36' W 002°17'5 9.2
2017-Sep-18 13:57N 46°31' W 002°18'  
2017-Sep-13 22:04N 46°18' W 002°04'1 5.2
2017-Sep-13 21:51N 46°18' W 002°03'2 4.4
2017-Sep-13 21:30N 46°19' W 002°01'2 4.3
2017-Sep-13 21:01N 46°21' W 001°59'2 4.5
2017-Sep-13 20:30N 46°22' W 001°56'2 4.6
2017-Sep-13 20:00N 46°24' W 001°54'2 4.7
2017-Sep-13 19:30N 46°26' W 001°52'2 4.6
2017-Sep-13 19:00N 46°27' W 001°49'3 5.4
2017-Sep-13 18:30N 46°30' W 001°48'0 0.5
2017-Sep-13 18:00N 46°30' W 001°47'2 3.1
2017-Sep-13 17:30N 46°28' W 001°48'5 9.8
2017-Sep-13 17:00N 46°25' W 001°53'5 9.9
2017-Sep-13 16:30N 46°22' W 001°58'5 9.9
2017-Sep-13 15:58N 46°18' W 002°04'16 9.5
2017-Sep-13 14:16N 46°08' W 002°22'  
2017-Sep-11 07:13N 46°44' W 002°21'  
Track history (hours):
 
Tides and Currents Weather Stations Pressure Air Temp Water Temp Dewpoint Dewpoint Depression Visibility Wind Speed Wind Dir Waves Ship Positions

F/V Argentario

Last reported at 2017-Sep-18 14:42 UTC. Time now 2017-Sep-21 06:49 UTC.
Position N 46°38' W 002°17'.

Length 22 m; draft 3.4 m.

Type: Fishing. MMSI: 228975000.

Date/timePositionNaut miles runAvg speedWind from/ knotsBaromVisibWave heightAir tempDewpointWater temp
2017-Sep-18 14:42N 46°38' W 002°17'2 9.1
2017-Sep-18 14:30N 46°36' W 002°17'5 9.2
2017-Sep-18 13:57N 46°31' W 002°18'  
2017-Sep-13 22:04N 46°18' W 002°04'1 5.2
2017-Sep-13 21:51N 46°18' W 002°03'2 4.4
2017-Sep-13 21:30N 46°19' W 002°01'2 4.3
2017-Sep-13 21:01N 46°21' W 001°59'2 4.5
2017-Sep-13 20:30N 46°22' W 001°56'2 4.6
2017-Sep-13 20:00N 46°24' W 001°54'2 4.7
2017-Sep-13 19:30N 46°26' W 001°52'2 4.6
2017-Sep-13 19:00N 46°27' W 001°49'3 5.4
2017-Sep-13 18:30N 46°30' W 001°48'0 0.5
2017-Sep-13 18:00N 46°30' W 001°47'2 3.1
2017-Sep-13 17:30N 46°28' W 001°48'5 9.8
2017-Sep-13 17:00N 46°25' W 001°53'5 9.9
2017-Sep-13 16:30N 46°22' W 001°58'5 9.9
2017-Sep-13 15:58N 46°18' W 002°04'16 9.5
2017-Sep-13 14:16N 46°08' W 002°22'  
2017-Sep-11 07:13N 46°44' W 002°21'  

Dump ship's entire track history